sensor_id;sensor_type;location;lat;lon;timestamp;P1;durP1;ratioP1;P2;durP2;ratioP2
51296;SDS011;37380;45.186;9.792;2024-03-23T00:54:27;36.47;;;22.55;;
51296;SDS011;37380;45.186;9.792;2024-03-23T00:56:52;30.00;;;22.45;;
51296;SDS011;37380;45.186;9.792;2024-03-23T00:59:18;43.50;;;23.80;;
51296;SDS011;37380;45.186;9.792;2024-03-23T01:01:45;35.63;;;25.55;;
51296;SDS011;37380;45.186;9.792;2024-03-23T01:04:10;38.28;;;27.80;;
51296;SDS011;37380;45.186;9.792;2024-03-23T01:06:36;51.80;;;33.53;;
51296;SDS011;37380;45.186;9.792;2024-03-23T01:09:02;48.38;;;31.17;;
51296;SDS011;37380;45.186;9.792;2024-03-23T01:11:29;38.58;;;23.77;;
51296;SDS011;37380;45.186;9.792;2024-03-23T01:13:54;34.83;;;26.08;;
51296;SDS011;37380;45.186;9.792;2024-03-23T01:16:21;38.58;;;24.45;;
51296;SDS011;37380;45.186;9.792;2024-03-23T01:18:47;41.50;;;26.48;;
51296;SDS011;37380;45.186;9.792;2024-03-23T01:21:13;44.67;;;28.08;;
51296;SDS011;37380;45.186;9.792;2024-03-23T01:23:39;39.28;;;29.65;;
51296;SDS011;37380;45.186;9.792;2024-03-23T01:26:05;38.40;;;29.23;;
51296;SDS011;37380;45.186;9.792;2024-03-23T01:28:31;38.67;;;27.92;;
51296;SDS011;37380;45.186;9.792;2024-03-23T01:30:57;41.67;;;27.85;;
51296;SDS011;37380;45.186;9.792;2024-03-23T01:33:23;50.50;;;27.40;;
51296;SDS011;37380;45.186;9.792;2024-03-23T01:35:49;35.83;;;26.60;;
51296;SDS011;37380;45.186;9.792;2024-03-23T01:38:15;50.80;;;28.92;;
51296;SDS011;37380;45.186;9.792;2024-03-23T01:40:41;42.80;;;27.65;;
51296;SDS011;37380;45.186;9.792;2024-03-23T01:43:07;55.85;;;30.13;;
51296;SDS011;37380;45.186;9.792;2024-03-23T01:45:34;38.92;;;27.45;;
51296;SDS011;37380;45.186;9.792;2024-03-23T01:48:01;45.03;;;25.92;;
51296;SDS011;37380;45.186;9.792;2024-03-23T01:50:29;36.05;;;25.17;;
51296;SDS011;37380;45.186;9.792;2024-03-23T01:53:02;35.55;;;26.08;;
51296;SDS011;37380;45.186;9.792;2024-03-23T01:55:29;37.60;;;27.15;;
51296;SDS011;37380;45.186;9.792;2024-03-23T01:57:56;35.13;;;27.00;;
51296;SDS011;37380;45.186;9.792;2024-03-23T02:00:23;39.63;;;27.80;;
51296;SDS011;37380;45.186;9.792;2024-03-23T02:02:49;35.83;;;27.05;;
51296;SDS011;37380;45.186;9.792;2024-03-23T02:05:15;43.60;;;28.52;;
51296;SDS011;37380;45.186;9.792;2024-03-23T02:07:41;47.60;;;29.33;;
51296;SDS011;37380;45.186;9.792;2024-03-23T02:10:11;49.30;;;28.60;;
51296;SDS011;37380;45.186;9.792;2024-03-23T02:12:40;44.38;;;33.47;;
51296;SDS011;37380;45.186;9.792;2024-03-23T02:15:07;46.05;;;30.67;;
51296;SDS011;37380;45.186;9.792;2024-03-23T02:17:34;44.10;;;29.90;;
51296;SDS011;37380;45.186;9.792;2024-03-23T02:20:01;43.33;;;30.15;;
51296;SDS011;37380;45.186;9.792;2024-03-23T02:22:38;45.00;;;29.27;;
51296;SDS011;37380;45.186;9.792;2024-03-23T02:25:05;41.78;;;27.10;;
51296;SDS011;37380;45.186;9.792;2024-03-23T02:27:31;43.90;;;30.98;;
51296;SDS011;37380;45.186;9.792;2024-03-23T02:29:58;44.63;;;29.83;;
51296;SDS011;37380;45.186;9.792;2024-03-23T02:32:24;47.60;;;32.67;;
51296;SDS011;37380;45.186;9.792;2024-03-23T02:34:50;49.70;;;34.35;;
51296;SDS011;37380;45.186;9.792;2024-03-23T02:37:16;44.95;;;32.17;;
51296;SDS011;37380;45.186;9.792;2024-03-23T02:39:42;48.67;;;33.78;;
51296;SDS011;37380;45.186;9.792;2024-03-23T02:42:08;56.45;;;38.35;;
51296;SDS011;37380;45.186;9.792;2024-03-23T02:44:34;61.78;;;37.92;;
51296;SDS011;37380;45.186;9.792;2024-03-23T02:47:00;50.60;;;35.75;;
51296;SDS011;37380;45.186;9.792;2024-03-23T02:49:26;53.55;;;36.78;;
51296;SDS011;37380;45.186;9.792;2024-03-23T02:51:52;47.60;;;33.50;;
51296;SDS011;37380;45.186;9.792;2024-03-23T02:54:18;46.08;;;35.00;;
51296;SDS011;37380;45.186;9.792;2024-03-23T02:56:44;70.10;;;35.83;;
51296;SDS011;37380;45.186;9.792;2024-03-23T02:59:10;50.80;;;34.95;;
51296;SDS011;37380;45.186;9.792;2024-03-23T03:01:36;56.15;;;36.00;;
51296;SDS011;37380;45.186;9.792;2024-03-23T03:04:02;62.17;;;36.35;;
51296;SDS011;37380;45.186;9.792;2024-03-23T03:06:29;50.65;;;33.85;;
51296;SDS011;37380;45.186;9.792;2024-03-23T03:08:56;45.55;;;32.45;;
51296;SDS011;37380;45.186;9.792;2024-03-23T03:11:22;60.45;;;39.95;;
51296;SDS011;37380;45.186;9.792;2024-03-23T03:13:49;58.40;;;37.63;;
51296;SDS011;37380;45.186;9.792;2024-03-23T03:16:14;47.20;;;36.10;;
51296;SDS011;37380;45.186;9.792;2024-03-23T03:18:40;61.95;;;42.30;;
51296;SDS011;37380;45.186;9.792;2024-03-23T03:21:07;53.30;;;40.53;;
51296;SDS011;37380;45.186;9.792;2024-03-23T03:23:39;62.22;;;40.92;;
51296;SDS011;37380;45.186;9.792;2024-03-23T03:26:05;66.93;;;41.92;;
51296;SDS011;37380;45.186;9.792;2024-03-23T03:28:32;48.88;;;37.08;;
51296;SDS011;37380;45.186;9.792;2024-03-23T03:30:59;55.42;;;38.65;;
51296;SDS011;37380;45.186;9.792;2024-03-23T03:33:26;56.97;;;40.97;;
51296;SDS011;37380;45.186;9.792;2024-03-23T03:35:53;60.67;;;39.33;;
51296;SDS011;37380;45.186;9.792;2024-03-23T03:38:19;51.83;;;40.97;;
51296;SDS011;37380;45.186;9.792;2024-03-23T03:40:45;56.08;;;37.75;;
51296;SDS011;37380;45.186;9.792;2024-03-23T03:43:11;49.53;;;35.42;;
51296;SDS011;37380;45.186;9.792;2024-03-23T03:45:38;47.80;;;35.40;;
51296;SDS011;37380;45.186;9.792;2024-03-23T03:48:04;59.13;;;36.03;;
51296;SDS011;37380;45.186;9.792;2024-03-23T03:50:30;58.03;;;38.58;;
51296;SDS011;37380;45.186;9.792;2024-03-23T03:52:56;66.50;;;39.17;;
51296;SDS011;37380;45.186;9.792;2024-03-23T03:55:22;50.65;;;34.80;;
51296;SDS011;37380;45.186;9.792;2024-03-23T03:57:48;49.15;;;32.22;;
51296;SDS011;37380;45.186;9.792;2024-03-23T04:00:14;43.45;;;32.53;;
51296;SDS011;37380;45.186;9.792;2024-03-23T04:02:40;50.10;;;33.72;;
51296;SDS011;37380;45.186;9.792;2024-03-23T04:05:06;53.08;;;32.65;;
51296;SDS011;37380;45.186;9.792;2024-03-23T04:07:33;55.00;;;34.65;;
51296;SDS011;37380;45.186;9.792;2024-03-23T04:09:59;45.38;;;34.10;;
51296;SDS011;37380;45.186;9.792;2024-03-23T04:12:26;48.22;;;34.50;;
51296;SDS011;37380;45.186;9.792;2024-03-23T04:14:52;48.08;;;35.47;;
51296;SDS011;37380;45.186;9.792;2024-03-23T04:17:18;48.50;;;34.83;;
51296;SDS011;37380;45.186;9.792;2024-03-23T04:19:44;46.60;;;35.05;;
51296;SDS011;37380;45.186;9.792;2024-03-23T04:22:11;51.92;;;36.22;;
51296;SDS011;37380;45.186;9.792;2024-03-23T04:24:37;52.70;;;35.60;;
51296;SDS011;37380;45.186;9.792;2024-03-23T04:27:03;56.45;;;33.72;;
51296;SDS011;37380;45.186;9.792;2024-03-23T04:29:28;50.88;;;34.78;;
51296;SDS011;37380;45.186;9.792;2024-03-23T04:31:54;47.35;;;32.33;;
51296;SDS011;37380;45.186;9.792;2024-03-23T04:34:21;49.85;;;34.92;;
51296;SDS011;37380;45.186;9.792;2024-03-23T04:36:48;58.25;;;42.15;;
51296;SDS011;37380;45.186;9.792;2024-03-23T04:39:14;58.45;;;38.22;;
51296;SDS011;37380;45.186;9.792;2024-03-23T04:41:40;44.70;;;33.90;;
51296;SDS011;37380;45.186;9.792;2024-03-23T04:44:06;58.83;;;38.17;;
51296;SDS011;37380;45.186;9.792;2024-03-23T04:46:33;51.10;;;36.00;;
51296;SDS011;37380;45.186;9.792;2024-03-23T04:48:58;50.60;;;34.47;;
51296;SDS011;37380;45.186;9.792;2024-03-23T04:51:24;50.28;;;33.30;;
51296;SDS011;37380;45.186;9.792;2024-03-23T04:53:50;52.72;;;37.90;;
51296;SDS011;37380;45.186;9.792;2024-03-23T04:56:16;62.95;;;44.53;;
51296;SDS011;37380;45.186;9.792;2024-03-23T04:58:43;69.10;;;47.95;;
51296;SDS011;37380;45.186;9.792;2024-03-23T05:01:10;70.13;;;49.65;;
51296;SDS011;37380;45.186;9.792;2024-03-23T05:03:37;63.20;;;44.08;;
51296;SDS011;37380;45.186;9.792;2024-03-23T05:06:03;64.15;;;39.60;;
51296;SDS011;37380;45.186;9.792;2024-03-23T05:08:30;55.70;;;36.90;;
51296;SDS011;37380;45.186;9.792;2024-03-23T05:10:56;54.70;;;39.22;;
51296;SDS011;37380;45.186;9.792;2024-03-23T05:13:22;49.35;;;33.85;;
51296;SDS011;37380;45.186;9.792;2024-03-23T05:15:55;52.15;;;34.92;;
51296;SDS011;37380;45.186;9.792;2024-03-23T05:18:21;69.95;;;41.38;;
51296;SDS011;37380;45.186;9.792;2024-03-23T05:20:47;60.72;;;41.55;;
51296;SDS011;37380;45.186;9.792;2024-03-23T05:23:13;79.25;;;46.17;;
51296;SDS011;37380;45.186;9.792;2024-03-23T05:25:39;79.13;;;48.55;;
51296;SDS011;37380;45.186;9.792;2024-03-23T05:28:05;75.57;;;52.30;;
51296;SDS011;37380;45.186;9.792;2024-03-23T05:30:32;77.00;;;49.90;;
51296;SDS011;37380;45.186;9.792;2024-03-23T05:32:58;74.25;;;49.03;;
51296;SDS011;37380;45.186;9.792;2024-03-23T05:35:24;76.72;;;48.10;;
51296;SDS011;37380;45.186;9.792;2024-03-23T05:37:50;66.80;;;46.53;;
51296;SDS011;37380;45.186;9.792;2024-03-23T05:40:16;64.20;;;46.25;;
51296;SDS011;37380;45.186;9.792;2024-03-23T05:42:42;64.80;;;45.03;;
51296;SDS011;37380;45.186;9.792;2024-03-23T05:45:08;71.80;;;47.50;;
51296;SDS011;37380;45.186;9.792;2024-03-23T05:47:34;74.47;;;48.92;;
51296;SDS011;37380;45.186;9.792;2024-03-23T05:50:00;70.28;;;49.70;;
51296;SDS011;37380;45.186;9.792;2024-03-23T05:52:28;78.35;;;50.30;;
51296;SDS011;37380;45.186;9.792;2024-03-23T05:54:54;81.32;;;52.08;;
51296;SDS011;37380;45.186;9.792;2024-03-23T05:57:21;94.47;;;54.55;;
51296;SDS011;37380;45.186;9.792;2024-03-23T05:59:46;88.38;;;59.17;;
51296;SDS011;37380;45.186;9.792;2024-03-23T06:02:12;83.18;;;56.40;;
51296;SDS011;37380;45.186;9.792;2024-03-23T06:04:38;91.63;;;57.03;;
51296;SDS011;37380;45.186;9.792;2024-03-23T06:07:04;76.18;;;54.13;;
51296;SDS011;37380;45.186;9.792;2024-03-23T06:09:42;83.03;;;59.05;;
51296;SDS011;37380;45.186;9.792;2024-03-23T06:12:08;86.60;;;60.30;;
51296;SDS011;37380;45.186;9.792;2024-03-23T06:14:34;81.22;;;57.33;;
51296;SDS011;37380;45.186;9.792;2024-03-23T06:17:00;88.15;;;61.05;;
51296;SDS011;37380;45.186;9.792;2024-03-23T06:19:27;109.78;;;59.85;;
51296;SDS011;37380;45.186;9.792;2024-03-23T06:21:53;95.15;;;57.03;;
51296;SDS011;37380;45.186;9.792;2024-03-23T06:24:23;79.70;;;55.85;;
51296;SDS011;37380;45.186;9.792;2024-03-23T06:26:50;76.95;;;57.97;;
51296;SDS011;37380;45.186;9.792;2024-03-23T06:29:16;81.43;;;57.55;;
51296;SDS011;37380;45.186;9.792;2024-03-23T06:31:54;87.18;;;54.85;;
51296;SDS011;37380;45.186;9.792;2024-03-23T06:34:30;90.00;;;56.45;;
51296;SDS011;37380;45.186;9.792;2024-03-23T06:36:56;85.50;;;59.67;;
51296;SDS011;37380;45.186;9.792;2024-03-23T06:39:22;83.13;;;56.70;;
51296;SDS011;37380;45.186;9.792;2024-03-23T06:41:52;73.22;;;52.60;;
51296;SDS011;37380;45.186;9.792;2024-03-23T06:44:19;78.97;;;53.08;;
51296;SDS011;37380;45.186;9.792;2024-03-23T06:46:45;75.70;;;50.17;;
51296;SDS011;37380;45.186;9.792;2024-03-23T06:49:11;68.65;;;49.00;;
51296;SDS011;37380;45.186;9.792;2024-03-23T06:51:37;72.82;;;48.35;;
51296;SDS011;37380;45.186;9.792;2024-03-23T06:54:05;72.90;;;53.42;;
51296;SDS011;37380;45.186;9.792;2024-03-23T06:56:31;75.78;;;50.65;;
51296;SDS011;37380;45.186;9.792;2024-03-23T06:58:57;89.00;;;54.67;;
51296;SDS011;37380;45.186;9.792;2024-03-23T07:01:23;80.55;;;54.35;;
51296;SDS011;37380;45.186;9.792;2024-03-23T07:03:49;82.40;;;50.53;;
51296;SDS011;37380;45.186;9.792;2024-03-23T07:06:15;80.22;;;48.42;;
51296;SDS011;37380;45.186;9.792;2024-03-23T07:08:41;85.40;;;51.75;;
51296;SDS011;37380;45.186;9.792;2024-03-23T07:11:07;74.88;;;54.60;;
51296;SDS011;37380;45.186;9.792;2024-03-23T07:13:33;88.43;;;54.55;;
51296;SDS011;37380;45.186;9.792;2024-03-23T07:15:59;87.00;;;54.88;;
51296;SDS011;37380;45.186;9.792;2024-03-23T07:18:25;86.53;;;56.28;;
51296;SDS011;37380;45.186;9.792;2024-03-23T07:20:52;86.10;;;58.97;;
51296;SDS011;37380;45.186;9.792;2024-03-23T07:23:24;86.28;;;56.95;;
51296;SDS011;37380;45.186;9.792;2024-03-23T07:26:03;88.40;;;61.47;;
51296;SDS011;37380;45.186;9.792;2024-03-23T07:28:31;86.82;;;57.63;;
51296;SDS011;37380;45.186;9.792;2024-03-23T07:31:01;81.35;;;52.83;;
51296;SDS011;37380;45.186;9.792;2024-03-23T07:33:32;90.18;;;61.10;;
51296;SDS011;37380;45.186;9.792;2024-03-23T07:36:06;86.90;;;59.05;;
51296;SDS011;37380;45.186;9.792;2024-03-23T07:38:32;84.88;;;57.97;;
51296;SDS011;37380;45.186;9.792;2024-03-23T07:41:02;86.85;;;53.17;;
51296;SDS011;37380;45.186;9.792;2024-03-23T07:43:38;87.38;;;54.38;;
51296;SDS011;37380;45.186;9.792;2024-03-23T07:46:05;88.28;;;59.22;;
51296;SDS011;37380;45.186;9.792;2024-03-23T07:48:32;84.68;;;58.80;;
51296;SDS011;37380;45.186;9.792;2024-03-23T07:50:59;84.47;;;60.38;;
51296;SDS011;37380;45.186;9.792;2024-03-23T07:53:30;93.18;;;61.75;;
51296;SDS011;37380;45.186;9.792;2024-03-23T07:58:34;88.53;;;63.58;;
51296;SDS011;37380;45.186;9.792;2024-03-23T08:01:07;77.88;;;56.85;;
51296;SDS011;37380;45.186;9.792;2024-03-23T08:03:39;78.07;;;57.95;;
51296;SDS011;37380;45.186;9.792;2024-03-23T08:08:36;74.32;;;55.40;;
51296;SDS011;37380;45.186;9.792;2024-03-23T08:11:02;91.05;;;55.28;;
51296;SDS011;37380;45.186;9.792;2024-03-23T08:13:29;81.13;;;51.40;;
51296;SDS011;37380;45.186;9.792;2024-03-23T08:15:59;70.28;;;54.65;;
51296;SDS011;37380;45.186;9.792;2024-03-23T08:18:27;86.72;;;56.53;;
51296;SDS011;37380;45.186;9.792;2024-03-23T08:20:57;80.10;;;55.28;;
51296;SDS011;37380;45.186;9.792;2024-03-23T08:23:24;69.07;;;53.67;;
51296;SDS011;37380;45.186;9.792;2024-03-23T08:25:51;79.50;;;52.85;;
51296;SDS011;37380;45.186;9.792;2024-03-23T08:28:18;91.57;;;58.00;;
51296;SDS011;37380;45.186;9.792;2024-03-23T08:30:44;89.70;;;52.30;;
51296;SDS011;37380;45.186;9.792;2024-03-23T08:33:36;77.85;;;52.75;;
51296;SDS011;37380;45.186;9.792;2024-03-23T08:36:03;76.78;;;52.50;;
51296;SDS011;37380;45.186;9.792;2024-03-23T08:38:30;64.82;;;49.17;;
51296;SDS011;37380;45.186;9.792;2024-03-23T08:40:57;68.05;;;49.38;;
51296;SDS011;37380;45.186;9.792;2024-03-23T08:43:28;75.55;;;46.80;;
51296;SDS011;37380;45.186;9.792;2024-03-23T08:48:41;69.65;;;46.08;;
51296;SDS011;37380;45.186;9.792;2024-03-23T08:51:09;66.57;;;48.25;;
51296;SDS011;37380;45.186;9.792;2024-03-23T08:53:37;70.72;;;51.83;;
51296;SDS011;37380;45.186;9.792;2024-03-23T08:56:04;71.30;;;54.17;;
51296;SDS011;37380;45.186;9.792;2024-03-23T08:58:32;77.97;;;56.58;;
51296;SDS011;37380;45.186;9.792;2024-03-23T09:01:03;88.43;;;56.70;;
51296;SDS011;37380;45.186;9.792;2024-03-23T09:03:32;72.47;;;51.00;;
51296;SDS011;37380;45.186;9.792;2024-03-23T09:05:58;63.47;;;44.15;;
51296;SDS011;37380;45.186;9.792;2024-03-23T09:08:25;65.60;;;45.95;;
51296;SDS011;37380;45.186;9.792;2024-03-23T09:10:51;70.70;;;42.47;;
51296;SDS011;37380;45.186;9.792;2024-03-23T09:13:17;64.93;;;43.55;;
51296;SDS011;37380;45.186;9.792;2024-03-23T09:15:47;74.28;;;55.30;;
51296;SDS011;37380;45.186;9.792;2024-03-23T09:18:15;61.88;;;47.30;;
51296;SDS011;37380;45.186;9.792;2024-03-23T09:20:41;72.22;;;52.55;;
51296;SDS011;37380;45.186;9.792;2024-03-23T09:23:08;69.47;;;47.45;;
51296;SDS011;37380;45.186;9.792;2024-03-23T09:25:37;72.65;;;47.70;;
51296;SDS011;37380;45.186;9.792;2024-03-23T09:28:07;75.05;;;52.53;;
51296;SDS011;37380;45.186;9.792;2024-03-23T09:30:36;67.80;;;50.97;;
51296;SDS011;37380;45.186;9.792;2024-03-23T09:33:11;67.47;;;45.15;;
51296;SDS011;37380;45.186;9.792;2024-03-23T09:35:38;69.47;;;47.75;;
51296;SDS011;37380;45.186;9.792;2024-03-23T09:38:04;66.18;;;45.97;;
51296;SDS011;37380;45.186;9.792;2024-03-23T09:40:33;63.22;;;44.63;;
51296;SDS011;37380;45.186;9.792;2024-03-23T09:42:59;68.63;;;50.10;;
51296;SDS011;37380;45.186;9.792;2024-03-23T09:45:29;65.30;;;42.97;;
51296;SDS011;37380;45.186;9.792;2024-03-23T09:47:55;61.35;;;39.85;;
51296;SDS011;37380;45.186;9.792;2024-03-23T09:50:22;65.10;;;40.30;;
51296;SDS011;37380;45.186;9.792;2024-03-23T09:52:48;52.38;;;36.95;;
51296;SDS011;37380;45.186;9.792;2024-03-23T09:55:14;60.85;;;40.17;;
51296;SDS011;37380;45.186;9.792;2024-03-23T09:57:41;51.30;;;35.88;;
51296;SDS011;37380;45.186;9.792;2024-03-23T10:00:07;50.30;;;35.22;;
51296;SDS011;37380;45.186;9.792;2024-03-23T10:02:35;52.05;;;35.70;;
51296;SDS011;37380;45.186;9.792;2024-03-23T10:05:01;48.92;;;34.50;;
51296;SDS011;37380;45.186;9.792;2024-03-23T10:07:27;54.78;;;39.03;;
51296;SDS011;37380;45.186;9.792;2024-03-23T10:09:54;59.53;;;41.05;;
51296;SDS011;37380;45.186;9.792;2024-03-23T10:12:20;55.30;;;40.45;;
51296;SDS011;37380;45.186;9.792;2024-03-23T10:14:46;56.38;;;40.80;;
51296;SDS011;37380;45.186;9.792;2024-03-23T10:22:22;61.08;;;36.95;;
51296;SDS011;37380;45.186;9.792;2024-03-23T10:24:50;51.20;;;36.90;;
51296;SDS011;37380;45.186;9.792;2024-03-23T10:27:17;56.70;;;36.38;;
51296;SDS011;37380;45.186;9.792;2024-03-23T10:29:46;54.42;;;34.40;;
51296;SDS011;37380;45.186;9.792;2024-03-23T10:32:14;48.28;;;31.88;;
51296;SDS011;37380;45.186;9.792;2024-03-23T10:34:44;50.38;;;34.20;;
51296;SDS011;37380;45.186;9.792;2024-03-23T10:37:14;45.25;;;33.33;;
51296;SDS011;37380;45.186;9.792;2024-03-23T10:39:40;45.78;;;31.13;;
51296;SDS011;37380;45.186;9.792;2024-03-23T10:42:07;47.75;;;33.85;;
51296;SDS011;37380;45.186;9.792;2024-03-23T10:44:36;48.15;;;31.92;;
51296;SDS011;37380;45.186;9.792;2024-03-23T10:47:03;36.72;;;29.42;;
51296;SDS011;37380;45.186;9.792;2024-03-23T10:49:31;43.17;;;34.00;;
51296;SDS011;37380;45.186;9.792;2024-03-23T10:54:28;43.53;;;30.50;;
51296;SDS011;37380;45.186;9.792;2024-03-23T10:57:02;38.00;;;29.45;;
51296;SDS011;37380;45.186;9.792;2024-03-23T10:59:31;53.17;;;33.60;;
51296;SDS011;37380;45.186;9.792;2024-03-23T11:01:59;47.60;;;31.20;;
51296;SDS011;37380;45.186;9.792;2024-03-23T11:06:57;40.45;;;30.15;;
51296;SDS011;37380;45.186;9.792;2024-03-23T11:09:40;44.53;;;30.33;;
51296;SDS011;37380;45.186;9.792;2024-03-23T11:12:29;35.38;;;29.38;;
51296;SDS011;37380;45.186;9.792;2024-03-23T11:15:01;50.92;;;28.33;;
51296;SDS011;37380;45.186;9.792;2024-03-23T11:17:30;42.75;;;31.77;;
51296;SDS011;37380;45.186;9.792;2024-03-23T11:20:02;50.70;;;31.00;;
51296;SDS011;37380;45.186;9.792;2024-03-23T11:25:25;39.92;;;27.20;;
51296;SDS011;37380;45.186;9.792;2024-03-23T11:27:53;35.67;;;28.00;;
51296;SDS011;37380;45.186;9.792;2024-03-23T11:30:24;37.55;;;29.45;;
51296;SDS011;37380;45.186;9.792;2024-03-23T11:32:52;40.10;;;29.08;;
51296;SDS011;37380;45.186;9.792;2024-03-23T11:40:36;38.67;;;27.90;;
51296;SDS011;37380;45.186;9.792;2024-03-23T11:43:07;47.60;;;31.00;;
51296;SDS011;37380;45.186;9.792;2024-03-23T11:45:40;35.60;;;27.52;;
51296;SDS011;37380;45.186;9.792;2024-03-23T11:48:09;39.40;;;27.50;;
51296;SDS011;37380;45.186;9.792;2024-03-23T11:50:37;38.40;;;26.67;;
51296;SDS011;37380;45.186;9.792;2024-03-23T11:53:07;39.13;;;26.52;;
51296;SDS011;37380;45.186;9.792;2024-03-23T11:58:19;43.40;;;29.25;;
51296;SDS011;37380;45.186;9.792;2024-03-23T12:01:00;37.90;;;27.45;;
51296;SDS011;37380;45.186;9.792;2024-03-23T12:03:31;39.55;;;28.60;;
51296;SDS011;37380;45.186;9.792;2024-03-23T12:06:02;39.33;;;27.77;;
51296;SDS011;37380;45.186;9.792;2024-03-23T12:08:32;48.80;;;29.15;;
51296;SDS011;37380;45.186;9.792;2024-03-23T12:11:06;34.03;;;24.20;;
51296;SDS011;37380;45.186;9.792;2024-03-23T12:13:32;35.50;;;24.50;;
51296;SDS011;37380;45.186;9.792;2024-03-23T12:16:12;32.90;;;22.23;;
51296;SDS011;37380;45.186;9.792;2024-03-23T12:18:42;31.70;;;23.63;;
51296;SDS011;37380;45.186;9.792;2024-03-23T12:21:12;27.70;;;21.23;;
51296;SDS011;37380;45.186;9.792;2024-03-23T12:23:39;32.05;;;23.80;;
51296;SDS011;37380;45.186;9.792;2024-03-23T12:26:13;37.60;;;27.42;;
51296;SDS011;37380;45.186;9.792;2024-03-23T12:28:39;38.08;;;25.42;;
51296;SDS011;37380;45.186;9.792;2024-03-23T12:31:08;43.63;;;27.90;;
51296;SDS011;37380;45.186;9.792;2024-03-23T12:33:41;35.85;;;26.60;;
51296;SDS011;37380;45.186;9.792;2024-03-23T12:36:10;33.85;;;25.92;;
51296;SDS011;37380;45.186;9.792;2024-03-23T12:38:36;36.78;;;26.50;;
51296;SDS011;37380;45.186;9.792;2024-03-23T12:41:01;34.72;;;25.00;;
51296;SDS011;37380;45.186;9.792;2024-03-23T12:43:30;35.70;;;25.98;;
51296;SDS011;37380;45.186;9.792;2024-03-23T12:45:56;38.50;;;28.17;;
51296;SDS011;37380;45.186;9.792;2024-03-23T12:48:22;31.55;;;26.35;;
51296;SDS011;37380;45.186;9.792;2024-03-23T12:50:48;56.53;;;27.23;;
51296;SDS011;37380;45.186;9.792;2024-03-23T12:53:14;35.83;;;26.95;;
51296;SDS011;37380;45.186;9.792;2024-03-23T12:55:40;37.83;;;26.00;;
51296;SDS011;37380;45.186;9.792;2024-03-23T12:58:06;40.05;;;26.08;;
51296;SDS011;37380;45.186;9.792;2024-03-23T13:00:33;35.05;;;21.88;;
51296;SDS011;37380;45.186;9.792;2024-03-23T13:02:59;33.25;;;24.48;;
51296;SDS011;37380;45.186;9.792;2024-03-23T13:05:24;38.05;;;21.85;;
51296;SDS011;37380;45.186;9.792;2024-03-23T13:07:50;34.65;;;22.92;;
51296;SDS011;37380;45.186;9.792;2024-03-23T13:10:16;32.63;;;22.08;;
51296;SDS011;37380;45.186;9.792;2024-03-23T13:12:42;35.05;;;23.23;;
51296;SDS011;37380;45.186;9.792;2024-03-23T13:15:08;28.65;;;22.80;;
51296;SDS011;37380;45.186;9.792;2024-03-23T13:17:34;32.05;;;22.00;;
51296;SDS011;37380;45.186;9.792;2024-03-23T13:20:01;30.58;;;22.90;;
51296;SDS011;37380;45.186;9.792;2024-03-23T13:22:27;28.23;;;21.70;;
51296;SDS011;37380;45.186;9.792;2024-03-23T13:24:53;38.10;;;24.05;;
51296;SDS011;37380;45.186;9.792;2024-03-23T13:27:20;32.05;;;23.45;;
51296;SDS011;37380;45.186;9.792;2024-03-23T13:29:45;35.45;;;25.98;;
51296;SDS011;37380;45.186;9.792;2024-03-23T13:32:12;31.98;;;23.15;;
51296;SDS011;37380;45.186;9.792;2024-03-23T13:34:39;34.13;;;24.08;;
51296;SDS011;37380;45.186;9.792;2024-03-23T13:37:05;32.53;;;23.75;;
51296;SDS011;37380;45.186;9.792;2024-03-23T13:39:32;23.75;;;20.27;;
51296;SDS011;37380;45.186;9.792;2024-03-23T13:41:58;31.60;;;21.45;;
51296;SDS011;37380;45.186;9.792;2024-03-23T13:44:25;30.73;;;22.05;;
51296;SDS011;37380;45.186;9.792;2024-03-23T13:46:51;32.22;;;20.13;;
51296;SDS011;37380;45.186;9.792;2024-03-23T13:49:27;34.15;;;22.25;;
51296;SDS011;37380;45.186;9.792;2024-03-23T13:51:54;24.67;;;18.25;;
51296;SDS011;37380;45.186;9.792;2024-03-23T13:54:22;24.83;;;16.75;;
51296;SDS011;37380;45.186;9.792;2024-03-23T13:56:50;20.38;;;18.15;;
51296;SDS011;37380;45.186;9.792;2024-03-23T13:59:16;23.17;;;17.13;;
51296;SDS011;37380;45.186;9.792;2024-03-23T14:01:46;24.83;;;17.02;;
51296;SDS011;37380;45.186;9.792;2024-03-23T14:04:12;25.92;;;17.25;;
51296;SDS011;37380;45.186;9.792;2024-03-23T14:06:39;26.60;;;18.50;;
51296;SDS011;37380;45.186;9.792;2024-03-23T14:09:05;21.25;;;16.65;;
51296;SDS011;37380;45.186;9.792;2024-03-23T14:11:35;20.35;;;16.02;;
51296;SDS011;37380;45.186;9.792;2024-03-23T14:14:02;26.90;;;18.00;;
51296;SDS011;37380;45.186;9.792;2024-03-23T14:16:29;27.15;;;16.50;;
51296;SDS011;37380;45.186;9.792;2024-03-23T14:18:56;27.77;;;16.38;;
51296;SDS011;37380;45.186;9.792;2024-03-23T14:21:23;19.50;;;14.95;;
51296;SDS011;37380;45.186;9.792;2024-03-23T14:23:49;24.30;;;13.95;;
51296;SDS011;37380;45.186;9.792;2024-03-23T14:26:15;27.27;;;15.55;;
51296;SDS011;37380;45.186;9.792;2024-03-23T14:28:41;24.35;;;15.48;;
51296;SDS011;37380;45.186;9.792;2024-03-23T14:31:07;25.45;;;16.55;;
51296;SDS011;37380;45.186;9.792;2024-03-23T14:33:39;17.98;;;16.15;;
51296;SDS011;37380;45.186;9.792;2024-03-23T14:36:15;19.40;;;16.88;;
51296;SDS011;37380;45.186;9.792;2024-03-23T14:38:46;28.95;;;17.63;;
51296;SDS011;37380;45.186;9.792;2024-03-23T14:41:14;22.30;;;17.90;;
51296;SDS011;37380;45.186;9.792;2024-03-23T14:43:40;28.30;;;17.70;;
51296;SDS011;37380;45.186;9.792;2024-03-23T14:46:12;24.38;;;16.63;;
51296;SDS011;37380;45.186;9.792;2024-03-23T14:48:40;24.90;;;18.70;;
51296;SDS011;37380;45.186;9.792;2024-03-23T14:51:07;26.15;;;18.35;;
51296;SDS011;37380;45.186;9.792;2024-03-23T14:53:35;20.20;;;18.00;;
51296;SDS011;37380;45.186;9.792;2024-03-23T14:56:02;30.10;;;18.77;;
51296;SDS011;37380;45.186;9.792;2024-03-23T14:58:28;36.65;;;18.73;;
51296;SDS011;37380;45.186;9.792;2024-03-23T15:01:05;28.65;;;18.80;;
51296;SDS011;37380;45.186;9.792;2024-03-23T15:03:38;24.63;;;18.08;;
51296;SDS011;37380;45.186;9.792;2024-03-23T15:06:06;23.75;;;18.52;;
51296;SDS011;37380;45.186;9.792;2024-03-23T15:08:35;27.73;;;17.77;;
51296;SDS011;37380;45.186;9.792;2024-03-23T15:11:02;24.55;;;18.10;;
51296;SDS011;37380;45.186;9.792;2024-03-23T15:13:34;24.92;;;17.23;;
51296;SDS011;37380;45.186;9.792;2024-03-23T15:16:01;20.60;;;14.73;;
51296;SDS011;37380;45.186;9.792;2024-03-23T15:18:32;17.40;;;12.57;;
51296;SDS011;37380;45.186;9.792;2024-03-23T15:20:59;15.38;;;11.77;;
51296;SDS011;37380;45.186;9.792;2024-03-23T15:23:31;14.38;;;11.55;;
51296;SDS011;37380;45.186;9.792;2024-03-23T15:25:57;14.13;;;10.95;;
51296;SDS011;37380;45.186;9.792;2024-03-23T15:28:25;12.65;;;9.85;;
51296;SDS011;37380;45.186;9.792;2024-03-23T15:30:58;12.45;;;6.95;;
51296;SDS011;37380;45.186;9.792;2024-03-23T15:33:24;12.25;;;6.78;;
51296;SDS011;37380;45.186;9.792;2024-03-23T15:35:50;13.65;;;7.45;;
51296;SDS011;37380;45.186;9.792;2024-03-23T15:38:16;14.43;;;4.47;;
51296;SDS011;37380;45.186;9.792;2024-03-23T15:40:50;10.85;;;5.00;;
51296;SDS011;37380;45.186;9.792;2024-03-23T15:43:17;6.50;;;3.33;;
51296;SDS011;37380;45.186;9.792;2024-03-23T15:45:42;13.90;;;3.75;;